PAYA

Yakutat Airport

Airport
ICAO code
PAYA
Summary
ICAO Region
NAM
ICAO Territory
Location

Yakutat,

Coordinates
59° 30' 33" N , 139° 39' 35" W
KCC
Airport BS
Bird Strike
Non Avian Wildlife Hazards to Aircraft
Metar
PAYA 221015Z AUTO 18005KT 2 1/2SM RA BR BKN003 BKN016 OVC023 14/14 A3012 RMK AO2 RAB0955 P0004 T01440139 TSNO $

Description

Regional airport serving the city of Yakutak.

Climatology

Yakutat has a climate located on the boundary of the subarctic (Köppen climate classification Dfb) and subpolar oceanic (Köppen climate classification Cfb) regimes. Yakutat has the typical high precipitation, absence of frozen soil and temperate rainforest vegetation of the subpolar oceanic climate zone of the Pacific Coast. It rivals Ketchikan as the wettest “city” in the United States, with an annual precipitation (1981−2010 normals) of 155 inches

Runways

Designator Length Width Surface Rops
2/20 1974 46 CONC-F Yes/Yes
11/29 2361 46 ASPH-G Yes/Yes

Airport map

Aerial View

SKYbrary Partners:

Safety knowledge contributed by: